createdAt,value
2018-05-09T00:00:49.377Z,99586
2018-05-09T00:03:27.120Z,99581
2018-05-09T00:06:03.325Z,99577
2018-05-09T00:08:40.524Z,99575
2018-05-09T00:11:17.993Z,99582
2018-05-09T00:13:55.489Z,99582
2018-05-09T00:16:33.540Z,99580
2018-05-09T00:19:09.945Z,99581
2018-05-09T00:21:47.201Z,99585
2018-05-09T00:24:24.584Z,99595
2018-05-09T00:27:02.155Z,99578
2018-05-09T00:29:40.369Z,99576
2018-05-09T00:32:17.348Z,99583
2018-05-09T00:34:55.301Z,99575
2018-05-09T00:37:32.146Z,99570
2018-05-09T00:40:10.354Z,99569
2018-05-09T00:42:48.797Z,99574
2018-05-09T00:45:25.158Z,99574
2018-05-09T00:48:02.861Z,99572
2018-05-09T00:50:39.620Z,99565
2018-05-09T00:53:16.474Z,99569
2018-05-09T00:55:54.219Z,99568
2018-05-09T00:58:31.271Z,99569
2018-05-09T01:01:07.601Z,99565
2018-05-09T01:03:45.557Z,99571
2018-05-09T01:06:22.086Z,99575
2018-05-09T01:08:59.742Z,99579
2018-05-09T01:11:37.785Z,99570
2018-05-09T01:14:15.402Z,99570
2018-05-09T01:16:54.121Z,99572
2018-05-09T01:19:30.607Z,99577
2018-05-09T01:22:08.289Z,99575
2018-05-09T01:24:44.860Z,99573
2018-05-09T01:27:21.270Z,99567
2018-05-09T01:29:58.938Z,99559
2018-05-09T01:32:35.803Z,99562
2018-05-09T01:35:12.804Z,99553
2018-05-09T01:37:49.433Z,99556
2018-05-09T01:40:28.710Z,99552
2018-05-09T01:43:05.577Z,99556
2018-05-09T01:45:42.230Z,99555
2018-05-09T01:48:21.057Z,99560
2018-05-09T01:50:58.146Z,99567
2018-05-09T01:53:36.292Z,99563
2018-05-09T01:56:13.126Z,99569
2018-05-09T01:58:49.764Z,99566
2018-05-09T02:01:27.602Z,99559
2018-05-09T02:04:05.671Z,99562
2018-05-09T02:06:42.031Z,99556
2018-05-09T02:09:20.958Z,99559
2018-05-09T02:11:59.302Z,99550
2018-05-09T02:14:37.673Z,99548
2018-05-09T02:17:13.985Z,99544
2018-05-09T02:19:50.287Z,99534
2018-05-09T02:22:27.037Z,99540
2018-05-09T02:25:04.696Z,99528
2018-05-09T02:27:41.264Z,99524
2018-05-09T02:30:18.595Z,99523
2018-05-09T02:32:56.341Z,99526
2018-05-09T02:35:34.390Z,99519
2018-05-09T02:38:11.846Z,99522
2018-05-09T02:40:48.642Z,99521
2018-05-09T02:43:25.305Z,99513
2018-05-09T02:46:02.905Z,99510
2018-05-09T02:48:39.569Z,99521
2018-05-09T02:51:16.477Z,99521
2018-05-09T02:53:53.142Z,99519
2018-05-09T02:56:31.159Z,99515
2018-05-09T02:59:09.103Z,99520
2018-05-09T03:01:45.739Z,99515
2018-05-09T03:04:23.624Z,99517
2018-05-09T03:07:01.457Z,99512
2018-05-09T03:09:38.693Z,99510
2018-05-09T03:12:16.099Z,99511
2018-05-09T03:14:53.165Z,99514
2018-05-09T03:17:30.040Z,99514
2018-05-09T03:20:07.393Z,99507
2018-05-09T03:22:44.613Z,99513
2018-05-09T03:25:21.974Z,99517
2018-05-09T03:28:00.840Z,99518
2018-05-09T03:30:38.317Z,99525
2018-05-09T03:33:15.129Z,99527
2018-05-09T03:35:51.745Z,99525
2018-05-09T03:38:30.492Z,99525
2018-05-09T03:41:07.169Z,99517
2018-05-09T03:43:45.013Z,99514
2018-05-09T03:46:23.747Z,99519
2018-05-09T03:49:01.845Z,99523
2018-05-09T03:51:39.071Z,99523
2018-05-09T03:54:15.821Z,99513
2018-05-09T03:56:52.713Z,99512
2018-05-09T03:59:29.993Z,99519
2018-05-09T04:02:23.190Z,99534
2018-05-09T04:05:19.173Z,99534
2018-05-09T04:08:14.808Z,99537
2018-05-09T04:10:51.365Z,99540
2018-05-09T04:13:28.969Z,99537
2018-05-09T04:16:05.970Z,99531
2018-05-09T04:18:43.837Z,99539
2018-05-09T04:21:21.062Z,99539
2018-05-09T04:23:57.794Z,99535
2018-05-09T04:26:34.484Z,99535
2018-05-09T04:29:13.114Z,99538
2018-05-09T04:31:50.782Z,99533
2018-05-09T04:34:28.805Z,99530
2018-05-09T04:37:07.007Z,99531
2018-05-09T04:39:43.881Z,99535
2018-05-09T04:42:21.090Z,99537
2018-05-09T04:44:58.722Z,99532
2018-05-09T04:47:37.609Z,99537
2018-05-09T04:50:15.295Z,99534
2018-05-09T04:52:53.481Z,99527
2018-05-09T04:55:30.550Z,99528
2018-05-09T04:58:08.085Z,99527
2018-05-09T05:00:45.238Z,99528
2018-05-09T05:03:22.871Z,99532
2018-05-09T05:06:01.173Z,99532
2018-05-09T05:08:39.353Z,99524
2018-05-09T05:11:16.669Z,99525
2018-05-09T05:13:53.936Z,99523
2018-05-09T05:16:31.230Z,99524
2018-05-09T05:19:08.511Z,99517
2018-05-09T05:21:44.985Z,99518
2018-05-09T05:24:21.853Z,99514
2018-05-09T05:26:59.989Z,99515
2018-05-09T05:29:38.381Z,99517
2018-05-09T05:32:15.298Z,99514
2018-05-09T05:34:53.216Z,99514
2018-05-09T05:37:31.749Z,99510
2018-05-09T05:40:10.398Z,99507
2018-05-09T05:42:48.093Z,99511
2018-05-09T05:45:24.832Z,99517
2018-05-09T05:48:03.282Z,99514
2018-05-09T05:50:39.957Z,99511
2018-05-09T05:53:16.853Z,99521
2018-05-09T05:55:56.389Z,99518
2018-05-09T05:58:33.764Z,99527
2018-05-09T06:01:10.145Z,99528
2018-05-09T06:03:48.215Z,99531
2018-05-09T06:06:27.184Z,99527
2018-05-09T06:09:03.855Z,99526
2018-05-09T06:11:41.298Z,99525
2018-05-09T06:14:19.546Z,99529
2018-05-09T06:16:56.939Z,99525
2018-05-09T06:19:35.438Z,99525
2018-05-09T06:22:13.635Z,99521
2018-05-09T06:24:51.436Z,99517
2018-05-09T06:27:28.117Z,99512
2018-05-09T06:30:06.025Z,99514
2018-05-09T06:32:42.622Z,99511
2018-05-09T06:35:20.643Z,99504
2018-05-09T06:37:58.810Z,99500
2018-05-09T06:40:35.800Z,99505
2018-05-09T06:43:12.276Z,99506
2018-05-09T06:45:49.438Z,99502
2018-05-09T06:48:26.142Z,99507
2018-05-09T06:51:03.090Z,99505
2018-05-09T06:53:39.570Z,99503
2018-05-09T06:56:16.818Z,99503
2018-05-09T06:58:53.749Z,99497
2018-05-09T07:01:32.255Z,99501
2018-05-09T07:04:10.251Z,99499
2018-05-09T07:06:47.979Z,99502
2018-05-09T07:09:25.335Z,99500
2018-05-09T07:12:03.949Z,99496
2018-05-09T07:14:41.741Z,99493
2018-05-09T07:17:19.986Z,99493
2018-05-09T07:19:56.893Z,99494
2018-05-09T07:22:35.135Z,99499
2018-05-09T07:25:11.505Z,99498
2018-05-09T07:27:48.801Z,99500
2018-05-09T07:30:26.681Z,99496
2018-05-09T07:33:04.421Z,99505
2018-05-09T07:35:42.494Z,99506
2018-05-09T07:38:19.217Z,99519
2018-05-09T07:40:57.065Z,99511
2018-05-09T07:43:34.185Z,99527
2018-05-09T07:46:11.077Z,99520
2018-05-09T07:48:49.320Z,99524
2018-05-09T07:51:27.214Z,99533
2018-05-09T07:54:05.013Z,99525
2018-05-09T07:56:42.163Z,99516
2018-05-09T07:59:19.793Z,99527
2018-05-09T08:01:57.745Z,99526
2018-05-09T08:04:35.700Z,99506
2018-05-09T08:07:14.109Z,99506
2018-05-09T08:09:51.846Z,99522
2018-05-09T08:12:29.096Z,99509
2018-05-09T08:15:07.061Z,99502
2018-05-09T08:17:44.904Z,99509
2018-05-09T08:20:23.251Z,99505
2018-05-09T08:23:01.225Z,99507
2018-05-09T08:25:38.826Z,99507
2018-05-09T08:28:17.040Z,99505
2018-05-09T08:30:54.610Z,99501
2018-05-09T08:33:32.054Z,99494
2018-05-09T08:36:09.638Z,99498
2018-05-09T08:38:47.817Z,99495
2018-05-09T08:41:24.801Z,99495
2018-05-09T08:44:01.801Z,99489
2018-05-09T08:46:40.014Z,99488
2018-05-09T08:49:17.593Z,99478
2018-05-09T08:51:56.366Z,99482
2018-05-09T08:54:32.935Z,99479
2018-05-09T08:57:09.770Z,99462
2018-05-09T08:59:46.553Z,99460
2018-05-09T09:02:23.621Z,99460
2018-05-09T09:05:00.689Z,99468
2018-05-09T09:07:37.994Z,99468
2018-05-09T09:10:14.936Z,99470
2018-05-09T09:12:52.587Z,99472
2018-05-09T09:15:29.652Z,99471
2018-05-09T09:18:08.060Z,99481
2018-05-09T09:20:45.377Z,99481
2018-05-09T09:23:23.081Z,99479
2018-05-09T09:25:59.910Z,99467
2018-05-09T09:28:36.801Z,99465
2018-05-09T09:31:13.546Z,99466
2018-05-09T09:33:51.092Z,99465
2018-05-09T09:36:28.115Z,99452
2018-05-09T09:39:04.034Z,99458
2018-05-09T09:41:41.777Z,99459
2018-05-09T09:44:20.585Z,99471
2018-05-09T09:46:57.630Z,99460
2018-05-09T09:49:33.900Z,99478
2018-05-09T09:52:11.838Z,99471
2018-05-09T09:54:49.913Z,99467
2018-05-09T09:57:27.647Z,99469
2018-05-09T10:00:03.839Z,99457
2018-05-09T10:02:41.584Z,99462
2018-05-09T10:05:18.912Z,99458
2018-05-09T10:07:55.979Z,99448
2018-05-09T10:10:32.409Z,99452
2018-05-09T10:13:08.613Z,99464
2018-05-09T10:15:45.461Z,99462
2018-05-09T10:18:22.573Z,99453
2018-05-09T10:20:59.561Z,99465
2018-05-09T10:23:37.159Z,99448
2018-05-09T10:26:15.380Z,99455
2018-05-09T10:28:52.336Z,99447
2018-05-09T10:31:29.638Z,99453
2018-05-09T10:34:07.326Z,99446
2018-05-09T10:36:44.510Z,99450
2018-05-09T10:39:22.013Z,99447
2018-05-09T10:42:00.046Z,99451
2018-05-09T10:44:37.402Z,99450
2018-05-09T10:47:14.890Z,99454
2018-05-09T10:49:53.209Z,99458
2018-05-09T10:52:30.454Z,99454
2018-05-09T10:55:07.066Z,99447
2018-05-09T10:57:45.260Z,99456
2018-05-09T11:00:22.068Z,99454
2018-05-09T11:03:00.961Z,99449
2018-05-09T11:05:37.797Z,99437
2018-05-09T11:08:16.694Z,99418
2018-05-09T11:10:54.949Z,99435
2018-05-09T11:13:31.834Z,99435
2018-05-09T11:16:08.888Z,99423
2018-05-09T11:18:47.687Z,99419
2018-05-09T11:21:26.190Z,99421
2018-05-09T11:24:04.008Z,99420
2018-05-09T11:26:41.442Z,99424
2018-05-09T11:29:19.504Z,99410
2018-05-09T11:31:57.683Z,99399
2018-05-09T11:34:34.657Z,99405
2018-05-09T11:37:13.594Z,99419
2018-05-09T11:39:51.085Z,99422
2018-05-09T11:42:27.273Z,99416
2018-05-09T11:45:04.858Z,99411
2018-05-09T11:47:41.620Z,99403
2018-05-09T11:50:19.349Z,99398
2018-05-09T11:52:56.582Z,99400
2018-05-09T11:55:34.494Z,99378
2018-05-09T11:58:12.522Z,99391
2018-05-09T12:00:49.361Z,99370
2018-05-09T12:03:29.282Z,99363
2018-05-09T12:06:05.669Z,99368
2018-05-09T12:08:43.970Z,99381
2018-05-09T12:11:20.763Z,99357
2018-05-09T12:13:59.907Z,99350
2018-05-09T12:16:38.200Z,99357
2018-05-09T12:19:14.712Z,99356
2018-05-09T12:21:52.333Z,99361
2018-05-09T12:24:29.294Z,99353
2018-05-09T12:27:14.944Z,99357
2018-05-09T12:29:52.461Z,99357
2018-05-09T12:32:30.008Z,99374
2018-05-09T12:35:07.602Z,99355
2018-05-09T12:37:44.239Z,99351
2018-05-09T12:40:21.888Z,99349
2018-05-09T12:42:59.762Z,99357
2018-05-09T12:45:36.534Z,99346
2018-05-09T12:48:12.606Z,99352
2018-05-09T12:50:49.233Z,99342
2018-05-09T12:53:27.693Z,99339
2018-05-09T12:56:04.982Z,99339
2018-05-09T12:58:41.520Z,99341
2018-05-09T13:01:18.493Z,99335
2018-05-09T13:03:56.754Z,99332
2018-05-09T13:06:36.318Z,99335
2018-05-09T13:09:13.933Z,99317
2018-05-09T13:11:50.549Z,99318
2018-05-09T13:14:28.185Z,99304
2018-05-09T13:17:06.161Z,99284
2018-05-09T13:19:42.221Z,99288
2018-05-09T13:22:20.626Z,99288
2018-05-09T13:24:57.289Z,99292
2018-05-09T13:27:35.295Z,99271
2018-05-09T13:30:12.430Z,99268
2018-05-09T13:32:49.789Z,99275
2018-05-09T13:35:27.072Z,99275
2018-05-09T13:38:04.033Z,99296
2018-05-09T13:40:41.336Z,99312
2018-05-09T13:43:18.334Z,99320
2018-05-09T13:45:55.670Z,99310
2018-05-09T13:48:33.786Z,99309
2018-05-09T13:51:11.930Z,99318
2018-05-09T13:53:48.407Z,99310
2018-05-09T13:56:25.695Z,99300
2018-05-09T13:59:02.677Z,99305
2018-05-09T14:01:41.157Z,99302
2018-05-09T14:04:19.073Z,99310
2018-05-09T14:06:56.362Z,99293
2018-05-09T14:09:34.753Z,99295
2018-05-09T14:12:11.498Z,99289
2018-05-09T14:14:47.972Z,99278
2018-05-09T14:17:25.213Z,99283
2018-05-09T14:20:01.373Z,99285
2018-05-09T14:22:39.154Z,99276
2018-05-09T14:25:19.888Z,99273
2018-05-09T14:27:58.316Z,99267
2018-05-09T14:30:35.391Z,99264
2018-05-09T14:33:13.758Z,99274
2018-05-09T14:35:50.910Z,99274
2018-05-09T14:38:28.182Z,99270
2018-05-09T14:41:05.094Z,99266
2018-05-09T14:43:41.746Z,99259
2018-05-09T14:46:18.463Z,99255
2018-05-09T14:48:55.716Z,99262
2018-05-09T14:51:32.691Z,99252
2018-05-09T14:54:09.751Z,99246
2018-05-09T14:56:47.187Z,99242
2018-05-09T14:59:24.573Z,99246
2018-05-09T15:02:03.021Z,99243
2018-05-09T15:04:41.506Z,99241
2018-05-09T15:07:18.547Z,99245
2018-05-09T15:09:55.370Z,99236
2018-05-09T15:12:32.241Z,99238
2018-05-09T15:15:08.729Z,99235
2018-05-09T15:17:46.006Z,99232
2018-05-09T15:20:24.519Z,99225
2018-05-09T15:23:02.120Z,99219
2018-05-09T15:25:38.987Z,99221
2018-05-09T15:28:16.846Z,99214
2018-05-09T15:30:55.221Z,99214
2018-05-09T15:33:33.807Z,99214
2018-05-09T15:36:11.870Z,99211
2018-05-09T15:38:49.439Z,99207
2018-05-09T15:41:26.421Z,99212
2018-05-09T15:44:04.273Z,99202
2018-05-09T15:46:40.810Z,99204
2018-05-09T15:49:18.819Z,99205
2018-05-09T15:51:56.859Z,99208
2018-05-09T15:54:34.301Z,99215
2018-05-09T15:57:10.993Z,99210
2018-05-09T15:59:47.653Z,99214
2018-05-09T16:02:24.961Z,99212
2018-05-09T16:05:01.669Z,99214
2018-05-09T16:07:39.877Z,99221
2018-05-09T16:10:17.426Z,99210
2018-05-09T16:12:54.521Z,99205
2018-05-09T16:15:32.559Z,99210
2018-05-09T16:18:09.193Z,99213
2018-05-09T16:20:47.196Z,99215
2018-05-09T16:23:24.481Z,99202
2018-05-09T16:26:01.378Z,99207
2018-05-09T16:28:39.105Z,99203
2018-05-09T16:31:17.754Z,99201
2018-05-09T16:33:55.022Z,99205
2018-05-09T16:36:32.465Z,99207
2018-05-09T16:39:10.345Z,99209
2018-05-09T16:41:47.712Z,99209
2018-05-09T16:44:25.985Z,99214
2018-05-09T16:47:03.161Z,99216
2018-05-09T16:49:39.797Z,99215
2018-05-09T16:52:18.046Z,99216
2018-05-09T16:54:56.604Z,99217
2018-05-09T16:57:32.242Z,99210
2018-05-09T17:00:09.585Z,99211
2018-05-09T17:02:46.919Z,99214
2018-05-09T17:05:23.986Z,99215
2018-05-09T17:08:00.822Z,99217
2018-05-09T17:10:37.848Z,99213
2018-05-09T17:13:15.777Z,99222
2018-05-09T17:15:52.778Z,99217
2018-05-09T17:18:30.281Z,99209
2018-05-09T17:21:05.825Z,99213
2018-05-09T17:23:42.391Z,99214
2018-05-09T17:26:18.592Z,99213
2018-05-09T17:28:55.119Z,99211
2018-05-09T17:31:31.752Z,99209
2018-05-09T17:34:08.941Z,99206
2018-05-09T17:36:46.416Z,99213
2018-05-09T17:39:23.422Z,99210
2018-05-09T17:41:59.913Z,99205
2018-05-09T17:44:38.154Z,99214
2018-05-09T17:47:15.526Z,99207
2018-05-09T17:49:51.978Z,99210
2018-05-09T17:52:28.874Z,99204
2018-05-09T17:55:05.501Z,99208
2018-05-09T17:57:42.128Z,99217
2018-05-09T18:00:19.805Z,99206
2018-05-09T18:02:55.998Z,99208
2018-05-09T18:05:33.198Z,99201
2018-05-09T18:08:09.977Z,99198
2018-05-09T18:10:46.523Z,99196
2018-05-09T18:13:24.031Z,99201
2018-05-09T18:16:01.717Z,99191
2018-05-09T18:18:38.660Z,99194
2018-05-09T18:21:16.669Z,99189
2018-05-09T18:23:55.834Z,99192
2018-05-09T18:26:32.980Z,99188
2018-05-09T18:29:09.984Z,99186
2018-05-09T18:31:46.942Z,99184
2018-05-09T18:34:23.870Z,99192
2018-05-09T18:37:02.873Z,99191
2018-05-09T18:39:40.754Z,99194
2018-05-09T18:42:18.534Z,99190
2018-05-09T18:44:55.031Z,99194
2018-05-09T18:47:33.014Z,99192
2018-05-09T18:50:09.497Z,99195
2018-05-09T18:52:46.757Z,99193
2018-05-09T18:55:23.022Z,99190
2018-05-09T18:58:00.832Z,99191
2018-05-09T19:00:36.894Z,99188
2018-05-09T19:03:14.183Z,99188
2018-05-09T19:05:50.734Z,99189
2018-05-09T19:08:27.022Z,99193
2018-05-09T19:11:05.537Z,99195
2018-05-09T19:13:42.303Z,99202
2018-05-09T19:16:20.807Z,99207
2018-05-09T19:18:59.481Z,99209
2018-05-09T19:21:36.626Z,99209
2018-05-09T19:24:13.737Z,99209
2018-05-09T19:26:50.474Z,99215
2018-05-09T19:29:27.261Z,99216
2018-05-09T19:32:03.616Z,99224
2018-05-09T19:34:42.241Z,99217
2018-05-09T19:37:19.412Z,99220
2018-05-09T19:39:57.297Z,99222
2018-05-09T19:42:34.601Z,99227
2018-05-09T19:45:12.810Z,99235
2018-05-09T19:47:48.844Z,99233
2018-05-09T19:50:27.057Z,99239
2018-05-09T19:53:05.345Z,99235
2018-05-09T19:55:44.641Z,99239
2018-05-09T19:58:23.712Z,99242
2018-05-09T20:01:00.902Z,99248
2018-05-09T20:03:37.488Z,99245
2018-05-09T20:06:13.736Z,99243
2018-05-09T20:08:50.674Z,99240
2018-05-09T20:11:26.899Z,99234
2018-05-09T20:14:04.785Z,99234
2018-05-09T20:16:41.197Z,99233
2018-05-09T20:19:18.550Z,99234
2018-05-09T20:21:56.104Z,99228
2018-05-09T20:24:33.993Z,99232
2018-05-09T20:27:12.250Z,99233
2018-05-09T20:29:49.484Z,99231
2018-05-09T20:32:39.460Z,99228
2018-05-09T20:35:16.140Z,99231
2018-05-09T20:37:53.479Z,99234
2018-05-09T20:40:30.510Z,99232
2018-05-09T20:43:07.562Z,99236
2018-05-09T20:45:45.516Z,99237
2018-05-09T20:48:23.183Z,99241
2018-05-09T20:51:02.327Z,99249
2018-05-09T20:53:40.168Z,99248
2018-05-09T20:56:16.766Z,99248
2018-05-09T20:58:53.709Z,99248
2018-05-09T21:01:48.172Z,99251
2018-05-09T21:04:26.857Z,99250
2018-05-09T21:07:04.342Z,99250
2018-05-09T21:09:44.954Z,99248
2018-05-09T21:12:26.049Z,99245
2018-05-09T21:15:01.701Z,99249
2018-05-09T21:17:40.137Z,99252
2018-05-09T21:20:17.951Z,99256
2018-05-09T21:22:54.705Z,99252
2018-05-09T21:25:30.940Z,99264
2018-05-09T21:28:09.184Z,99257
2018-05-09T21:30:47.041Z,99262
2018-05-09T21:33:25.524Z,99266
2018-05-09T21:36:04.127Z,99269
2018-05-09T21:38:43.022Z,99274
2018-05-09T21:41:20.126Z,99276
2018-05-09T21:43:58.544Z,99278
2018-05-09T21:46:35.142Z,99276
2018-05-09T21:49:11.693Z,99279
2018-05-09T21:51:48.105Z,99279
2018-05-09T21:54:25.947Z,99283
2018-05-09T21:57:03.622Z,99284
2018-05-09T21:59:41.781Z,99281
2018-05-09T22:02:18.889Z,99282
2018-05-09T22:04:56.971Z,99277
2018-05-09T22:07:34.365Z,99278
2018-05-09T22:10:10.586Z,99273
2018-05-09T22:12:47.265Z,99273
2018-05-09T22:15:24.262Z,99269
2018-05-09T22:18:00.489Z,99268
2018-05-09T22:20:38.274Z,99269
2018-05-09T22:23:15.232Z,99270
2018-05-09T22:25:52.177Z,99264
2018-05-09T22:28:30.367Z,99265
2018-05-09T22:31:07.361Z,99259
2018-05-09T22:33:44.322Z,99259
2018-05-09T22:36:22.061Z,99254
2018-05-09T22:39:00.111Z,99256
2018-05-09T22:41:36.801Z,99256
2018-05-09T22:44:14.397Z,99256
2018-05-09T22:46:51.685Z,99254
2018-05-09T22:49:27.918Z,99258
2018-05-09T22:52:04.420Z,99252
2018-05-09T22:54:42.317Z,99251
2018-05-09T22:57:18.658Z,99247
2018-05-09T22:59:56.264Z,99241
2018-05-09T23:02:33.841Z,99247
2018-05-09T23:05:12.386Z,99246
2018-05-09T23:07:48.609Z,99243
2018-05-09T23:10:25.838Z,99245
2018-05-09T23:13:02.609Z,99244
2018-05-09T23:15:39.601Z,99247
2018-05-09T23:18:16.543Z,99245
2018-05-09T23:20:52.808Z,99240
2018-05-09T23:23:30.676Z,99240
2018-05-09T23:26:07.534Z,99236
2018-05-09T23:28:45.320Z,99234
2018-05-09T23:31:21.872Z,99232
2018-05-09T23:33:58.867Z,99230
2018-05-09T23:36:35.665Z,99233
2018-05-09T23:39:13.524Z,99225
2018-05-09T23:41:51.635Z,99218
2018-05-09T23:44:28.315Z,99217
2018-05-09T23:47:06.182Z,99218
2018-05-09T23:49:43.509Z,99221
2018-05-09T23:52:22.320Z,99221
2018-05-09T23:54:58.458Z,99214
2018-05-09T23:57:35.349Z,99212
